createdAt,value
2019-01-12T00:02:28.267Z,95809.95
2019-01-12T00:05:18.183Z,95808.98
2019-01-12T00:08:08.255Z,95808.10
2019-01-12T00:10:58.328Z,95812.73
2019-01-12T00:13:48.384Z,95815.41
2019-01-12T00:16:38.518Z,95807.40
2019-01-12T00:19:28.638Z,95813.38
2019-01-12T00:22:18.903Z,95819.20
2019-01-12T00:25:08.987Z,95815.15
2019-01-12T00:27:58.880Z,95823.43
2019-01-12T00:30:48.921Z,95825.97
2019-01-12T00:33:39.262Z,95817.42
2019-01-12T00:36:29.262Z,95815.48
2019-01-12T00:39:19.359Z,95807.20
2019-01-12T00:42:09.688Z,95813.06
2019-01-12T00:44:59.906Z,95815.54
2019-01-12T00:47:49.693Z,95820.37
2019-01-12T00:50:39.682Z,95818.38
2019-01-12T00:53:30.366Z,95820.27
2019-01-12T00:56:20.226Z,95832.81
2019-01-12T00:59:10.346Z,95824.56
2019-01-12T01:02:00.198Z,95834.26
2019-01-12T01:04:50.106Z,95831.14
2019-01-12T01:07:41.061Z,95828.88
2019-01-12T01:10:31.159Z,95821.02
2019-01-12T01:13:20.987Z,95827.01
2019-01-12T01:16:10.766Z,95838.95
2019-01-12T01:19:00.474Z,95834.12
2019-01-12T01:21:50.452Z,95839.94
2019-01-12T01:24:45.733Z,95832.76
2019-01-12T01:27:32.017Z,95835.75
2019-01-12T01:30:22.501Z,95834.28
2019-01-12T01:33:12.580Z,95836.64
2019-01-12T01:36:02.569Z,95848.77
2019-01-12T01:38:52.607Z,95848.23
2019-01-12T01:41:42.632Z,95836.11
2019-01-12T01:44:32.464Z,95841.13
2019-01-12T01:47:22.608Z,95839.41
2019-01-12T01:50:14.893Z,95841.23
2019-01-12T01:53:04.932Z,95841.05
2019-01-12T01:55:55.064Z,95835.68
2019-01-12T01:58:45.187Z,95847.47
2019-01-12T02:01:34.992Z,95843.73
2019-01-12T02:04:25.987Z,95847.84
2019-01-12T02:07:16.623Z,95847.34
2019-01-12T02:10:09.782Z,95848.11
2019-01-12T02:12:59.541Z,95852.19
2019-01-12T02:15:49.623Z,95850.79
2019-01-12T02:18:39.657Z,95851.05
2019-01-12T02:21:29.776Z,95849.02
2019-01-12T02:24:19.532Z,95849.20
2019-01-12T02:27:09.562Z,95851.93
2019-01-12T02:29:59.380Z,95857.63
2019-01-12T02:32:49.283Z,95857.55
2019-01-12T02:35:39.221Z,95850.82
2019-01-12T02:38:28.946Z,95857.43
2019-01-12T02:41:18.977Z,95856.63
2019-01-12T02:44:09.376Z,95846.52
2019-01-12T02:46:59.790Z,95842.39
2019-01-12T02:49:57.879Z,95837.32
2019-01-12T02:52:47.796Z,95832.73
2019-01-12T02:55:37.542Z,95839.58
2019-01-12T02:58:27.347Z,95838.36
2019-01-12T03:01:17.293Z,95831.98
2019-01-12T03:04:07.238Z,95831.60
2019-01-12T03:06:57.336Z,95837.31
2019-01-12T03:09:47.328Z,95833.75
2019-01-12T03:12:37.309Z,95833.45
2019-01-12T03:15:27.148Z,95832.34
2019-01-12T03:18:17.134Z,95829.14
2019-01-12T03:21:06.962Z,95825.13
2019-01-12T03:23:57.090Z,95828.06
2019-01-12T03:26:47.273Z,95830.66
2019-01-12T03:29:37.472Z,95838.61
2019-01-12T03:32:27.422Z,95837.11
2019-01-12T03:35:17.434Z,95826.09
2019-01-12T03:38:07.290Z,95824.62
2019-01-12T03:40:57.343Z,95826.08
2019-01-12T03:43:47.240Z,95826.73
2019-01-12T03:46:37.022Z,95825.70
2019-01-12T03:49:26.852Z,95829.03
2019-01-12T03:52:16.943Z,95830.26
2019-01-12T03:55:26.036Z,95820.67
2019-01-12T03:58:15.921Z,95825.39
2019-01-12T04:01:06.152Z,95825.33
2019-01-12T04:04:15.418Z,95819.09
2019-01-12T04:07:05.575Z,95823.44
2019-01-12T04:09:55.952Z,95828.14
2019-01-12T04:12:45.783Z,95824.92
2019-01-12T04:15:35.753Z,95816.28
2019-01-12T04:18:25.508Z,95817.62
2019-01-12T04:21:15.392Z,95823.09
2019-01-12T04:24:06.663Z,95819.69
2019-01-12T04:26:56.487Z,95825.92
2019-01-12T04:29:46.957Z,95821.12
2019-01-12T04:32:37.187Z,95823.76
2019-01-12T04:35:27.528Z,95815.80
2019-01-12T04:38:37.566Z,95827.11
2019-01-12T04:41:28.327Z,95823.69
2019-01-12T04:44:18.724Z,95825.34
2019-01-12T04:47:09.118Z,95828.09
2019-01-12T04:49:59.206Z,95835.61
2019-01-12T04:52:49.426Z,95831.34
2019-01-12T04:55:41.605Z,95827.72
2019-01-12T04:58:30.962Z,95824.80
2019-01-12T05:01:20.821Z,95822.23
2019-01-12T05:04:10.901Z,95817.55
2019-01-12T05:07:00.985Z,95821.16
2019-01-12T05:09:51.282Z,95811.63
2019-01-12T05:12:41.341Z,95822.66
2019-01-12T05:15:31.541Z,95824.15
2019-01-12T05:18:21.672Z,95829.92
2019-01-12T05:21:11.482Z,95823.12
2019-01-12T05:24:01.814Z,95803.21
2019-01-12T05:26:51.923Z,95803.05
2019-01-12T05:29:42.073Z,95811.01
2019-01-12T05:32:31.973Z,95801.70
2019-01-12T05:35:22.041Z,95807.89
2019-01-12T05:38:12.382Z,95809.19
2019-01-12T05:41:02.264Z,95809.86
2019-01-12T05:43:52.153Z,95813.55
2019-01-12T05:46:42.061Z,95814.98
2019-01-12T05:49:32.003Z,95813.51
2019-01-12T05:52:23.046Z,95823.34
2019-01-12T05:55:13.748Z,95821.63
2019-01-12T05:58:03.948Z,95812.89
2019-01-12T06:00:54.261Z,95813.06
2019-01-12T06:03:44.537Z,95818.86
2019-01-12T06:06:34.586Z,95826.45
2019-01-12T06:09:24.317Z,95827.41
2019-01-12T06:12:14.181Z,95830.59
2019-01-12T06:15:04.118Z,95829.33
2019-01-12T06:17:53.961Z,95825.92
2019-01-12T06:20:44.142Z,95830.58
2019-01-12T06:23:34.168Z,95831.16
2019-01-12T06:26:24.377Z,95841.23
2019-01-12T06:29:14.458Z,95849.34
2019-01-12T06:32:04.693Z,95842.67
2019-01-12T06:34:54.780Z,95831.37
2019-01-12T06:37:44.766Z,95827.11
2019-01-12T06:40:38.962Z,95832.31
2019-01-12T06:43:28.842Z,95841.82
2019-01-12T06:46:18.972Z,95825.78
2019-01-12T06:49:08.929Z,95837.25
2019-01-12T06:51:58.808Z,95832.88
2019-01-12T06:54:48.622Z,95835.61
2019-01-12T06:57:39.047Z,95844.84
2019-01-12T07:00:29.199Z,95844.63
2019-01-12T07:03:19.045Z,95837.78
2019-01-12T07:06:11.122Z,95836.30
2019-01-12T07:09:00.746Z,95843.36
2019-01-12T07:11:50.557Z,95844.31
2019-01-12T07:14:40.370Z,95834.78
2019-01-12T07:17:30.384Z,95848.46
2019-01-12T07:20:20.641Z,95844.75
2019-01-12T07:23:10.981Z,95845.69
2019-01-12T07:26:01.503Z,95854.08
2019-01-12T07:28:51.653Z,95865.47
2019-01-12T07:31:41.644Z,95858.23
2019-01-12T07:34:32.072Z,95855.00
2019-01-12T07:37:22.083Z,95858.41
2019-01-12T07:40:12.216Z,95855.33
2019-01-12T07:43:02.108Z,95856.36
2019-01-12T07:45:52.202Z,95863.08
2019-01-12T07:48:42.161Z,95864.63
2019-01-12T07:51:51.130Z,95862.10
2019-01-12T07:54:43.305Z,95854.30
2019-01-12T07:57:33.042Z,95867.05
2019-01-12T08:00:24.350Z,95869.27
2019-01-12T08:03:14.337Z,95858.78
2019-01-12T08:06:04.396Z,95865.44
2019-01-12T08:08:54.143Z,95861.57
2019-01-12T08:11:46.179Z,95854.70
2019-01-12T08:14:35.352Z,95859.95
2019-01-12T08:17:25.260Z,95861.73
2019-01-12T08:20:15.596Z,95857.58
2019-01-12T08:23:07.960Z,95854.80
2019-01-12T08:25:57.922Z,95848.27
2019-01-12T08:28:47.983Z,95849.39
2019-01-12T08:31:38.770Z,95862.36
2019-01-12T08:34:29.123Z,95857.85
2019-01-12T08:37:19.227Z,95859.91
2019-01-12T08:40:11.463Z,95856.30
2019-01-12T08:43:01.434Z,95854.08
2019-01-12T08:45:51.241Z,95854.66
2019-01-12T08:48:41.160Z,95844.63
2019-01-12T08:51:31.342Z,95845.74
2019-01-12T08:54:21.502Z,95837.00
2019-01-12T08:57:11.562Z,95839.48
2019-01-12T09:00:01.954Z,95830.89
2019-01-12T09:02:52.260Z,95836.21
2019-01-12T09:05:42.521Z,95841.86
2019-01-12T09:08:32.466Z,95848.78
2019-01-12T09:11:22.323Z,95836.20
2019-01-12T09:14:12.148Z,95834.09
2019-01-12T09:17:01.974Z,95838.73
2019-01-12T09:20:12.110Z,95836.00
2019-01-12T09:23:02.190Z,95830.62
2019-01-12T09:25:52.058Z,95823.55
2019-01-12T09:28:41.988Z,95835.20
2019-01-12T09:31:32.009Z,95835.33
2019-01-12T09:34:22.101Z,95834.75
2019-01-12T09:37:11.971Z,95832.77
2019-01-12T09:40:01.929Z,95837.12
2019-01-12T09:42:52.287Z,95831.72
2019-01-12T09:45:42.470Z,95828.06
2019-01-12T09:48:32.681Z,95829.14
2019-01-12T09:51:23.053Z,95824.12
2019-01-12T09:54:13.628Z,95818.65
2019-01-12T09:57:03.753Z,95818.16
2019-01-12T09:59:53.784Z,95804.93
2019-01-12T10:02:43.728Z,95816.80
2019-01-12T10:05:34.007Z,95804.56
2019-01-12T10:08:23.870Z,95789.95
2019-01-12T10:11:14.175Z,95780.72
2019-01-12T10:14:04.003Z,95778.86
2019-01-12T10:16:54.094Z,95777.94
2019-01-12T10:19:43.962Z,95777.41
2019-01-12T10:22:33.902Z,95774.17
2019-01-12T10:25:24.180Z,95773.28
2019-01-12T10:28:14.260Z,95778.55
2019-01-12T10:31:04.181Z,95768.73
2019-01-12T10:33:54.135Z,95771.84
2019-01-12T10:36:44.146Z,95765.03
2019-01-12T10:39:33.965Z,95759.22
2019-01-12T10:42:23.759Z,95754.34
2019-01-12T10:45:16.171Z,95752.45
2019-01-12T10:48:06.368Z,95746.55
2019-01-12T10:50:56.298Z,95740.16
2019-01-12T10:53:46.438Z,95731.33
2019-01-12T10:56:36.118Z,95727.25
2019-01-12T10:59:26.059Z,95729.62
2019-01-12T11:02:15.766Z,95722.23
2019-01-12T11:05:08.026Z,95726.77
2019-01-12T11:07:57.845Z,95724.11
2019-01-12T11:10:47.884Z,95716.44
2019-01-12T11:13:37.679Z,95714.38
2019-01-12T11:16:28.192Z,95717.37
2019-01-12T11:19:18.282Z,95716.57
2019-01-12T11:22:08.465Z,95717.50
2019-01-12T11:24:58.379Z,95712.41
2019-01-12T11:27:50.072Z,95713.05
2019-01-12T11:30:58.945Z,95710.26
2019-01-12T11:33:49.008Z,95706.03
2019-01-12T11:36:38.748Z,95698.56
2019-01-12T11:39:29.246Z,95686.48
2019-01-12T11:42:19.298Z,95684.14
2019-01-12T11:45:10.007Z,95687.04
2019-01-12T11:47:59.886Z,95677.84
2019-01-12T11:50:50.050Z,95676.09
2019-01-12T11:53:39.738Z,95680.02
2019-01-12T11:56:29.981Z,95673.13
2019-01-12T11:59:19.667Z,95660.16
2019-01-12T12:02:09.748Z,95650.47
2019-01-12T12:04:59.557Z,95648.59
2019-01-12T12:07:49.575Z,95654.10
2019-01-12T12:10:39.306Z,95654.50
2019-01-12T12:13:48.239Z,95596.61
2019-01-12T12:16:38.166Z,95651.30
2019-01-12T12:19:27.986Z,95652.03
2019-01-12T12:22:18.049Z,95650.59
2019-01-12T12:25:08.163Z,95646.10
2019-01-12T12:27:58.079Z,95636.56
2019-01-12T12:30:47.718Z,95645.17
2019-01-12T12:33:37.687Z,95639.38
2019-01-12T12:36:46.536Z,95617.38
2019-01-12T12:39:36.659Z,95612.81
2019-01-12T12:42:26.682Z,95618.95
2019-01-12T12:45:27.033Z,95604.08
2019-01-12T12:48:16.548Z,95605.88
2019-01-12T12:51:06.660Z,95608.86
2019-01-12T12:53:56.445Z,95605.47
2019-01-12T12:56:46.300Z,95590.59
2019-01-12T12:59:36.147Z,95580.75
2019-01-12T13:02:26.041Z,95570.97
2019-01-12T13:05:15.879Z,95567.77
2019-01-12T13:08:06.150Z,95549.95
2019-01-12T13:10:55.755Z,95546.47
2019-01-12T13:13:45.724Z,95543.92
2019-01-12T13:16:35.734Z,95536.30
2019-01-12T13:19:25.760Z,95526.53
2019-01-12T13:22:15.621Z,95518.72
2019-01-12T13:25:07.890Z,95515.23
2019-01-12T13:27:57.918Z,95509.92
2019-01-12T13:30:47.876Z,95512.09
2019-01-12T13:33:37.597Z,95510.78
2019-01-12T13:36:27.727Z,95499.81
2019-01-12T13:39:17.364Z,95510.36
2019-01-12T13:42:08.763Z,95512.08
2019-01-12T13:45:00.698Z,95507.20
2019-01-12T13:47:50.968Z,95501.44
2019-01-12T13:50:40.762Z,95489.97
2019-01-12T13:53:30.617Z,95486.33
2019-01-12T13:56:21.104Z,95483.86
2019-01-12T13:59:11.180Z,95472.63
2019-01-12T14:02:00.902Z,95474.47
2019-01-12T14:05:09.616Z,95480.13
2019-01-12T14:07:59.873Z,95479.05
2019-01-12T14:10:49.937Z,95475.88
2019-01-12T14:13:40.080Z,95480.78
2019-01-12T14:16:29.947Z,95469.08
2019-01-12T14:19:20.057Z,95469.17
2019-01-12T14:22:09.908Z,95467.64
2019-01-12T14:24:59.911Z,95462.00
2019-01-12T14:27:54.266Z,95462.41
2019-01-12T14:30:41.846Z,95454.04
2019-01-12T14:33:31.961Z,95448.97
2019-01-12T14:36:21.743Z,95455.63
2019-01-12T14:39:12.204Z,95454.52
2019-01-12T14:42:09.260Z,95455.50
2019-01-12T14:45:02.437Z,95451.36
2019-01-12T14:47:54.727Z,95452.31
2019-01-12T14:50:45.636Z,95445.19
2019-01-12T14:53:35.586Z,95449.42
2019-01-12T14:56:26.104Z,95454.44
2019-01-12T14:59:16.347Z,95456.95
2019-01-12T15:02:07.011Z,95454.75
2019-01-12T15:04:57.216Z,95453.20
2019-01-12T15:07:48.235Z,95452.33
2019-01-12T15:10:38.592Z,95453.92
2019-01-12T15:13:28.762Z,95447.75
2019-01-12T15:16:18.736Z,95453.63
2019-01-12T15:19:09.219Z,95452.48
2019-01-12T15:21:59.843Z,95455.09
2019-01-12T15:24:50.232Z,95456.55
2019-01-12T15:27:40.766Z,95450.63
2019-01-12T15:30:34.955Z,95463.60
2019-01-12T15:33:25.412Z,95458.15
2019-01-12T15:36:15.660Z,95460.02
2019-01-12T15:39:08.738Z,95461.06
2019-01-12T15:41:59.351Z,95451.09
2019-01-12T15:44:49.786Z,95445.80
2019-01-12T15:47:40.333Z,95430.44
2019-01-12T15:50:31.016Z,95436.23
2019-01-12T15:53:28.792Z,95453.19
2019-01-12T15:56:19.023Z,95454.12
2019-01-12T15:59:10.128Z,95452.19
2019-01-12T16:02:00.475Z,95441.92
2019-01-12T16:04:50.861Z,95435.51
2019-01-12T16:07:41.181Z,95435.72
2019-01-12T16:10:32.767Z,95437.19
2019-01-12T16:13:22.943Z,95451.36
2019-01-12T16:16:16.651Z,95450.79
2019-01-12T16:19:07.381Z,95435.00
2019-01-12T16:21:58.091Z,95424.73
2019-01-12T16:24:49.404Z,95433.56
2019-01-12T16:28:00.354Z,95439.81
2019-01-12T16:30:50.763Z,95450.76
2019-01-12T16:35:03.446Z,95447.69
2019-01-12T16:37:53.851Z,95439.58
2019-01-12T16:40:45.540Z,95430.64
2019-01-12T16:43:36.865Z,95419.43
2019-01-12T16:46:47.843Z,95413.72
2019-01-12T16:49:38.485Z,95405.16
2019-01-12T16:52:30.428Z,95389.94
2019-01-12T16:55:21.255Z,95380.77
2019-01-12T16:58:11.724Z,95370.67
2019-01-12T17:01:02.236Z,95368.95
2019-01-12T17:03:53.164Z,95365.88
2019-01-12T17:06:43.735Z,95361.35
2019-01-12T17:09:34.301Z,95356.86
2019-01-12T17:12:25.169Z,95350.45
2019-01-12T17:15:18.343Z,95348.98
2019-01-12T17:18:08.812Z,95337.06
2019-01-12T17:20:59.503Z,95324.00
2019-01-12T17:24:08.910Z,95311.33
2019-01-12T17:26:59.825Z,95296.63
2019-01-12T17:29:53.171Z,95308.10
2019-01-12T17:32:46.253Z,95300.84
2019-01-12T17:35:37.201Z,95297.06
2019-01-12T17:38:28.070Z,95292.95
2019-01-12T17:41:19.158Z,95293.33
2019-01-12T17:44:09.721Z,95303.23
2019-01-12T17:47:07.534Z,95302.17
2019-01-12T17:50:19.052Z,95303.45
2019-01-12T17:53:10.887Z,95313.72
2019-01-12T17:56:01.690Z,95322.42
2019-01-12T17:58:52.663Z,95322.47
2019-01-12T18:01:43.578Z,95325.50
2019-01-12T18:04:34.814Z,95314.06
2019-01-12T18:07:26.081Z,95325.56
2019-01-12T18:10:17.500Z,95330.91
2019-01-12T18:13:08.581Z,95333.88
2019-01-12T18:16:11.055Z,95328.81
2019-01-12T18:19:01.528Z,95325.12
2019-01-12T18:21:52.555Z,95324.86
2019-01-12T18:24:43.363Z,95317.75
2019-01-12T18:27:34.400Z,95311.06
2019-01-12T18:30:25.008Z,95310.39
2019-01-12T18:33:17.070Z,95312.00
2019-01-12T18:36:07.619Z,95310.92
2019-01-12T18:39:18.148Z,95310.16
2019-01-12T18:42:08.944Z,95300.41
2019-01-12T18:44:59.919Z,95291.32
2019-01-12T18:47:50.720Z,95284.41
2019-01-12T18:50:41.421Z,95279.06
2019-01-12T18:53:34.242Z,95266.84
2019-01-12T18:56:25.067Z,95271.55
2019-01-12T18:59:15.977Z,95267.75
2019-01-12T19:02:06.610Z,95254.59
2019-01-12T19:04:57.613Z,95251.02
2019-01-12T19:08:07.187Z,95244.31
2019-01-12T19:10:57.780Z,95233.75
2019-01-12T19:13:49.275Z,95228.53
2019-01-12T19:16:51.785Z,95231.48
2019-01-12T19:19:42.772Z,95212.69
2019-01-12T19:22:33.054Z,95196.80
2019-01-12T19:25:23.644Z,95184.28
2019-01-12T19:28:14.693Z,95186.45
2019-01-12T19:31:05.661Z,95178.19
2019-01-12T19:33:57.381Z,95167.81
2019-01-12T19:36:48.021Z,95148.19
2019-01-12T19:39:38.893Z,95152.41
2019-01-12T19:42:29.879Z,95148.16
2019-01-12T19:45:20.398Z,95135.98
2019-01-12T19:48:10.866Z,95129.50
2019-01-12T19:51:01.608Z,95130.30
2019-01-12T19:53:52.420Z,95130.13
2019-01-12T19:56:43.463Z,95136.92
2019-01-12T19:59:34.580Z,95139.78
2019-01-12T20:02:25.441Z,95133.25
2019-01-12T20:05:16.282Z,95144.86
2019-01-12T20:08:07.490Z,95152.61
2019-01-12T20:10:58.191Z,95152.27
2019-01-12T20:13:49.344Z,95152.52
2019-01-12T20:16:41.092Z,95158.38
2019-01-12T20:19:31.681Z,95144.95
2019-01-12T20:22:22.802Z,95133.07
2019-01-12T20:25:17.430Z,95118.55
2019-01-12T20:28:21.555Z,95123.02
2019-01-12T20:32:35.813Z,95134.38
2019-01-12T20:35:56.569Z,95139.03
2019-01-12T20:39:26.682Z,95151.34
2019-01-12T20:43:21.573Z,95170.02
2019-01-12T20:47:16.003Z,95155.61
2019-01-12T20:50:32.101Z,95157.08
2019-01-12T20:54:05.283Z,95161.95
2019-01-12T20:57:48.226Z,95171.56
2019-01-12T21:01:35.771Z,95159.23
2019-01-12T21:05:05.441Z,95152.02
2019-01-12T21:08:51.563Z,95136.59
2019-01-12T21:12:41.030Z,95135.63
2019-01-12T21:15:44.772Z,95143.13
2019-01-12T21:18:35.582Z,95149.90
2019-01-12T21:21:27.520Z,95135.28
2019-01-12T21:24:18.148Z,95139.22
2019-01-12T21:27:08.694Z,95132.13
2019-01-12T21:29:59.528Z,95128.31
2019-01-12T21:32:52.479Z,95139.33
2019-01-12T21:35:44.772Z,95134.09
2019-01-12T21:38:35.693Z,95132.27
2019-01-12T21:41:26.568Z,95135.17
2019-01-12T21:44:17.766Z,95132.80
2019-01-12T21:47:08.761Z,95132.56
2019-01-12T21:49:59.571Z,95135.38
2019-01-12T21:52:50.783Z,95141.34
2019-01-12T21:55:41.202Z,95128.06
2019-01-12T21:58:31.722Z,95115.16
2019-01-12T22:01:22.461Z,95112.70
2019-01-12T22:04:13.931Z,95108.47
2019-01-12T22:07:05.220Z,95093.73
2019-01-12T22:09:56.023Z,95090.55
2019-01-12T22:12:47.470Z,95068.59
2019-01-12T22:15:39.288Z,95073.52
2019-01-12T22:18:30.069Z,95063.44
2019-01-12T22:21:20.732Z,95064.38
2019-01-12T22:24:11.327Z,95069.47
2019-01-12T22:27:01.443Z,95062.83
2019-01-12T22:29:52.031Z,95066.29
2019-01-12T22:32:42.341Z,95056.80
2019-01-12T22:35:32.212Z,95055.02
2019-01-12T22:38:22.350Z,95046.82
2019-01-12T22:41:12.917Z,95048.43
2019-01-12T22:44:02.897Z,95037.51
2019-01-12T22:46:53.408Z,95042.85
2019-01-12T22:49:43.480Z,95038.41
2019-01-12T22:52:33.677Z,95034.90
2019-01-12T22:55:23.930Z,95023.78
2019-01-12T22:58:13.941Z,95020.06
2019-01-12T23:01:48.149Z,95023.36
2019-01-12T23:04:38.781Z,95012.89
2019-01-12T23:07:29.090Z,95001.21
2019-01-12T23:10:19.209Z,95002.66
2019-01-12T23:13:09.372Z,94984.47
2019-01-12T23:15:59.482Z,94991.08
2019-01-12T23:18:49.601Z,94993.75
2019-01-12T23:21:39.736Z,94992.70
2019-01-12T23:24:29.569Z,94993.09
2019-01-12T23:27:19.361Z,94983.84
2019-01-12T23:30:12.497Z,94986.52
2019-01-12T23:33:02.516Z,94980.19
2019-01-12T23:35:52.569Z,94986.38
2019-01-12T23:38:42.751Z,94983.01
2019-01-12T23:41:33.045Z,94971.94
2019-01-12T23:44:23.274Z,94957.59
2019-01-12T23:47:13.577Z,94956.78
2019-01-12T23:50:04.015Z,94964.28
2019-01-12T23:52:54.181Z,94962.30
2019-01-12T23:55:44.400Z,94955.19
2019-01-12T23:58:34.523Z,94948.91
